Time;durP1;ratioP1;P1;durP2;ratioP2;P2;SDS_P1;SDS_P2;PMS_P1;PMS_P2;Temp;Humidity;BMP_temperature;BMP_pressure;BME280_temperature;BME280_humidity;BME280_pressure;Samples;Min_cycle;Max_cycle;Signal;HPM_P1;HPM_P2
2023/08/28 00:01:41;;;;;;;4.80;4.40;;;;;;;23.66;36.76;94769.75;6096021;28;108765;-68
2023/08/28 00:04:44;;;;;;;4.80;4.40;;;;;;;23.59;36.39;94758.81;6107040;28;108917;-67
2023/08/28 00:07:50;;;;;;;4.97;4.57;;;;;;;23.52;36.26;94756.66;6094897;28;109288;-67
2023/08/28 00:10:54;;;;;;;4.63;4.23;;;;;;;23.51;35.93;94763.06;6109225;28;108839;-68
2023/08/28 00:13:57;;;;;;;4.47;4.07;;;;;;;23.42;35.84;94764.22;6107113;28;109211;-68
2023/08/28 00:17:00;;;;;;;4.25;3.85;;;;;;;23.37;35.07;94757.19;6111035;28;108653;-68
2023/08/28 00:20:04;;;;;;;4.38;4.03;;;;;;;23.45;35.03;94758.22;6103076;28;108787;-69
2023/08/28 00:23:09;;;;;;;4.78;4.38;;;;;;;23.43;34.80;94755.88;6106518;28;108798;-68
2023/08/28 00:26:12;;;;;;;4.30;3.90;;;;;;;23.41;35.17;94751.97;6111280;28;108978;-68
2023/08/28 00:29:15;;;;;;;4.43;4.05;;;;;;;23.45;34.69;94755.56;6112463;28;108983;-68
2023/08/28 00:32:18;;;;;;;4.43;4.10;;;;;;;23.38;34.92;94749.94;6098300;28;109465;-68
2023/08/28 00:35:21;;;;;;;4.13;3.83;;;;;;;23.25;35.48;94754.34;6112036;28;109138;-67
2023/08/28 00:38:26;;;;;;;4.20;3.80;;;;;;;23.32;35.75;94751.22;6111366;28;108970;-69
2023/08/28 00:41:29;;;;;;;4.00;3.60;;;;;;;23.42;35.70;94750.88;6107770;28;108806;-69
2023/08/28 00:44:32;;;;;;;4.13;3.80;;;;;;;23.41;37.35;94759.97;6102814;28;108952;-73
2023/08/28 00:47:36;;;;;;;6.50;4.20;;;;;;;23.68;38.00;94762.19;6097073;28;108892;-68
2023/08/28 00:50:39;;;;;;;5.88;4.30;;;;;;;24.24;37.31;94764.72;6112401;28;108947;-69
2023/08/28 00:53:44;;;;;;;5.57;4.30;;;;;;;24.67;36.70;94764.34;6102469;28;109481;-66
2023/08/28 00:56:48;;;;;;;5.50;3.70;;;;;;;24.98;36.54;94769.28;6113124;28;108780;-67
2023/08/28 00:59:52;;;;;;;4.50;4.10;;;;;;;25.16;36.69;94773.34;6112532;28;109014;-67
2023/08/28 01:02:55;;;;;;;4.88;3.88;;;;;;;25.30;36.68;94773.81;6112445;28;108869;-67
2023/08/28 01:06:18;;;;;;;4.10;3.80;;;;;;;25.42;36.59;94758.94;6102370;28;109776;-67
2023/08/28 01:09:36;;;;;;;4.63;4.20;;;;;;;25.51;36.77;94751.53;6110045;28;109129;-67
2023/08/28 01:12:47;;;;;;;4.40;4.00;;;;;;;25.59;36.49;94742.63;6103518;28;108809;-67
2023/08/28 01:15:52;;;;;;;5.03;3.73;;;;;;;25.68;37.14;94754.78;6105139;28;109784;-68
2023/08/28 01:18:57;;;;;;;4.47;3.37;;;;;;;25.77;37.43;94745.84;6111458;28;108926;-67
2023/08/28 01:22:11;;;;;;;4.50;3.72;;;;;;;25.81;37.50;94746.75;6111208;28;109117;-67
2023/08/28 01:25:16;;;;;;;5.07;3.60;;;;;;;25.83;37.56;94755.22;6107723;28;108879;-65
2023/08/28 01:28:19;;;;;;;4.00;3.60;;;;;;;25.89;37.67;94760.03;6102357;28;108915;-68
2023/08/28 01:31:22;;;;;;;3.90;3.50;;;;;;;25.95;37.83;94752.53;6111474;28;108832;-68
2023/08/28 01:34:25;;;;;;;4.10;3.70;;;;;;;25.99;38.34;94753.41;6106008;28;109892;-68
2023/08/28 01:37:35;;;;;;;4.10;3.70;;;;;;;25.99;38.67;94748.84;6110771;28;108796;-67
2023/08/28 01:40:44;;;;;;;4.20;3.80;;;;;;;26.05;38.69;94743.28;6091873;28;111659;-67
2023/08/28 01:43:49;;;;;;;4.80;3.90;;;;;;;26.07;38.74;94746.41;6104940;28;108847;-66
2023/08/28 01:46:52;;;;;;;4.40;3.57;;;;;;;26.09;38.95;94744.94;6111907;28;108825;-66
2023/08/28 01:49:56;;;;;;;4.00;3.60;;;;;;;26.11;38.69;94747.28;6104652;28;110336;-67
2023/08/28 01:52:59;;;;;;;3.60;3.30;;;;;;;26.14;38.95;94744.72;6109527;28;109211;-67
2023/08/28 01:56:24;;;;;;;4.00;3.70;;;;;;;26.19;39.05;94741.00;6104410;28;108722;-67
2023/08/28 01:59:29;;;;;;;4.10;3.50;;;;;;;26.20;39.56;94729.94;6110855;28;108918;-66
2023/08/28 02:02:32;;;;;;;3.90;3.60;;;;;;;26.24;39.68;94738.88;6089838;28;109995;-66
2023/08/28 02:05:35;;;;;;;3.80;3.40;;;;;;;26.27;39.34;94737.41;6111786;28;109547;-65
2023/08/28 02:08:38;;;;;;;3.83;3.42;;;;;;;26.25;39.61;94735.09;6111649;28;109064;-66
2023/08/28 02:11:43;;;;;;;3.50;3.20;;;;;;;26.30;39.49;94733.28;6110911;28;109074;-67
2023/08/28 02:14:46;;;;;;;3.70;3.40;;;;;;;26.32;40.13;94722.97;6099352;28;108985;-66
2023/08/28 02:17:49;;;;;;;3.90;3.27;;;;;;;26.32;39.73;94717.59;6110963;28;108804;-68
2023/08/28 02:20:53;;;;;;;3.50;3.20;;;;;;;26.33;39.74;94716.50;6109505;28;109060;-66
2023/08/28 02:23:56;;;;;;;3.40;3.10;;;;;;;26.33;39.89;94717.28;6105367;28;108864;-65
2023/08/28 02:27:01;;;;;;;3.45;3.15;;;;;;;26.39;40.35;94717.81;6107636;28;108847;-67
2023/08/28 02:30:07;;;;;;;4.20;3.30;;;;;;;26.36;40.44;94721.94;6110895;28;109074;-66
2023/08/28 02:33:10;;;;;;;3.40;3.10;;;;;;;26.41;40.21;94726.31;6102250;28;108796;-67
2023/08/28 02:36:13;;;;;;;3.20;2.90;;;;;;;26.38;40.86;94725.09;6100718;28;108696;-66
2023/08/28 02:39:16;;;;;;;3.20;2.90;;;;;;;26.39;40.68;94723.19;6109906;28;108720;-66
2023/08/28 02:42:21;;;;;;;3.80;3.50;;;;;;;26.40;40.53;94719.38;6098491;28;108865;-66
2023/08/28 02:45:24;;;;;;;3.30;3.00;;;;;;;26.42;40.84;94723.28;6106227;28;108730;-67
2023/08/28 02:48:27;;;;;;;3.20;2.90;;;;;;;26.47;41.09;94714.19;6099776;28;109461;-65
2023/08/28 02:51:30;;;;;;;3.35;3.05;;;;;;;26.51;41.05;94705.13;6108848;28;109985;-66
2023/08/28 02:54:34;;;;;;;3.30;3.00;;;;;;;26.52;40.95;94705.91;6110494;28;109127;-65
2023/08/28 02:57:38;;;;;;;2.90;2.70;;;;;;;26.54;40.99;94703.66;6107106;28;108798;-66
2023/08/28 03:00:42;;;;;;;3.50;3.20;;;;;;;26.58;41.12;94699.97;6107886;28;109286;-67
2023/08/28 03:03:45;;;;;;;4.60;3.75;;;;;;;26.60;40.95;94704.97;6114251;28;108749;-63
2023/08/28 03:06:49;;;;;;;4.50;4.10;;;;;;;26.61;42.20;94700.41;6114827;28;108697;-61
2023/08/28 03:09:52;;;;;;;7.82;5.18;;;;;;;26.61;41.62;94705.75;6102775;28;109116;-62
2023/08/28 03:12:56;;;;;;;6.28;4.93;;;;;;;26.55;41.44;94711.38;6114594;28;108685;-61
2023/08/28 03:16:00;;;;;;;6.05;5.20;;;;;;;26.53;41.47;94704.78;6113614;28;108889;-62
2023/08/28 03:19:03;;;;;;;10.30;9.43;;;;;;;26.51;41.92;94707.81;6113712;28;108810;-66
2023/08/28 03:22:06;;;;;;;47.60;44.13;;;;;;;26.53;41.91;94712.81;6103445;28;109853;-66
2023/08/28 03:25:09;;;;;;;46.47;43.40;;;;;;;26.50;41.56;94713.50;6112616;28;108936;-66
2023/08/28 03:28:14;;;;;;;15.90;14.70;;;;;;;26.34;41.01;94712.69;6112033;28;109016;-66
2023/08/28 03:31:17;;;;;;;9.73;8.80;;;;;;;26.04;41.44;94712.97;6112406;28;109048;-67
2023/08/28 03:34:20;;;;;;;7.13;6.40;;;;;;;25.95;41.78;94715.00;6101370;28;109533;-65
2023/08/28 03:37:23;;;;;;;9.75;6.90;;;;;;;25.97;42.13;94712.75;6112883;28;108818;-66
2023/08/28 03:40:27;;;;;;;7.00;6.32;;;;;;;25.94;42.11;94710.75;6111386;28;108776;-68
2023/08/28 03:43:31;;;;;;;6.50;5.90;;;;;;;25.97;41.61;94715.44;6103401;28;109383;-65
2023/08/28 03:46:34;;;;;;;5.60;5.10;;;;;;;25.97;41.54;94718.13;6103830;28;108859;-66
2023/08/28 03:49:37;;;;;;;6.83;5.00;;;;;;;25.78;41.75;94713.34;6091567;28;109035;-66
2023/08/28 03:52:40;;;;;;;5.50;5.00;;;;;;;25.73;41.87;94705.56;6105098;28;108917;-64
2023/08/28 03:55:43;;;;;;;5.82;4.82;;;;;;;25.72;41.97;94703.22;6103906;28;108824;-66
2023/08/28 03:58:48;;;;;;;7.68;5.20;;;;;;;25.48;42.34;94704.78;6091177;28;108677;-66
2023/08/28 04:01:51;;;;;;;6.17;5.47;;;;;;;25.62;41.95;94707.91;6096233;28;109060;-66
2023/08/28 04:04:55;;;;;;;7.13;5.38;;;;;;;25.64;42.18;94711.00;6094418;28;108743;-68
2023/08/28 04:08:09;;;;;;;8.15;5.90;;;;;;;25.98;43.17;94707.06;6095115;28;108847;-71
2023/08/28 04:11:12;;;;;;;9.10;5.60;;;;;;;26.29;42.06;94708.34;6091241;28;109389;-71
2023/08/28 04:14:17;;;;;;;5.88;5.13;;;;;;;26.46;41.94;94701.91;6095594;28;108889;-70
2023/08/28 04:17:20;;;;;;;6.28;5.68;;;;;;;26.39;41.60;94709.78;6103857;28;108778;-70
2023/08/28 04:20:23;;;;;;;6.63;5.10;;;;;;;25.87;42.09;94702.50;6107982;28;109272;-71
2023/08/28 04:23:26;;;;;;;6.32;5.72;;;;;;;25.54;42.68;94708.81;6114271;28;108908;-73
2023/08/28 04:26:30;;;;;;;6.50;5.90;;;;;;;25.36;43.01;94710.91;6113886;28;108850;-71
2023/08/28 04:29:35;;;;;;;6.17;5.57;;;;;;;25.29;42.98;94710.66;6103875;28;108831;-71
2023/08/28 04:32:38;;;;;;;6.72;5.63;;;;;;;25.14;43.75;94711.31;6114286;28;109051;-71
2023/08/28 04:35:41;;;;;;;7.93;6.05;;;;;;;25.21;43.53;94711.56;6113856;28;108666;-73
2023/08/28 04:38:44;;;;;;;7.22;5.90;;;;;;;25.17;43.22;94710.63;6113799;28;109058;-71
2023/08/28 04:41:47;;;;;;;6.13;5.53;;;;;;;25.09;43.72;94715.00;6102220;28;108793;-71
2023/08/28 04:44:52;;;;;;;6.72;6.03;;;;;;;25.06;43.59;94710.31;6113978;28;108587;-71
2023/08/28 04:47:55;;;;;;;8.53;7.00;;;;;;;25.13;43.93;94712.44;6113903;28;108645;-71
2023/08/28 04:50:58;;;;;;;6.73;6.10;;;;;;;25.30;43.05;94711.44;6113184;28;108612;-69
2023/08/28 04:54:01;;;;;;;6.40;5.80;;;;;;;25.72;42.28;94719.28;6105414;28;108849;-72
2023/08/28 04:57:04;;;;;;;7.65;6.35;;;;;;;25.97;41.44;94723.47;6113621;28;108967;-71
2023/08/28 05:00:10;;;;;;;7.50;6.07;;;;;;;26.08;41.86;94731.88;6113505;28;108733;-71
2023/08/28 05:03:13;;;;;;;6.40;5.80;;;;;;;26.15;41.89;94732.84;6103556;28;108843;-69
2023/08/28 05:06:16;;;;;;;6.60;5.88;;;;;;;26.20;41.98;94732.63;6113070;28;109002;-71
2023/08/28 05:09:19;;;;;;;7.00;6.07;;;;;;;26.23;41.74;94731.97;6113455;28;108999;-71
2023/08/28 05:12:22;;;;;;;6.35;5.70;;;;;;;26.25;41.83;94729.72;6112926;28;109129;-71
2023/08/28 05:15:27;;;;;;;6.30;5.70;;;;;;;26.17;41.56;94724.47;6103581;28;108826;-70
2023/08/28 05:18:30;;;;;;;6.50;5.90;;;;;;;25.62;42.40;94715.94;6113539;28;108780;-70
2023/08/28 05:21:33;;;;;;;7.70;6.30;;;;;;;25.31;42.82;94716.47;6112161;28;110615;-70
2023/08/28 05:24:38;;;;;;;8.10;6.38;;;;;;;25.23;43.52;94705.88;6113772;28;108691;-71
2023/08/28 05:27:41;;;;;;;7.07;6.30;;;;;;;25.19;43.68;94704.94;6101790;28;108897;-70
2023/08/28 05:30:45;;;;;;;8.98;7.63;;;;;;;25.56;43.40;94705.78;6107527;28;108637;-70
2023/08/28 05:33:48;;;;;;;9.93;9.02;;;;;;;25.89;42.63;94711.78;6089733;28;108697;-71
2023/08/28 05:36:52;;;;;;;7.50;6.80;;;;;;;26.04;42.36;94712.19;6084387;28;108808;-71
2023/08/28 05:39:55;;;;;;;7.20;6.60;;;;;;;26.14;41.89;94717.88;6084910;28;108905;-71
2023/08/28 05:42:58;;;;;;;7.15;6.45;;;;;;;26.25;41.77;94721.66;6088845;28;108720;-71
2023/08/28 05:46:02;;;;;;;7.80;7.10;;;;;;;26.39;41.96;94718.59;6089141;28;108639;-70
2023/08/28 05:49:07;;;;;;;7.60;6.90;;;;;;;26.52;41.55;94716.63;6078353;28;110875;-70
2023/08/28 05:52:10;;;;;;;7.00;6.40;;;;;;;26.61;41.07;94709.22;6089092;28;109049;-70
2023/08/28 05:55:13;;;;;;;7.45;6.75;;;;;;;26.71;41.26;94707.97;6092306;28;108606;-70
2023/08/28 05:58:16;;;;;;;7.60;6.97;;;;;;;26.77;41.24;94702.03;6113293;28;108620;-71
2023/08/28 06:01:20;;;;;;;7.90;7.10;;;;;;;26.84;40.75;94707.56;6101454;28;108728;-70
2023/08/28 06:04:24;;;;;;;7.80;6.95;;;;;;;26.89;40.86;94701.19;6113217;28;108775;-69
2023/08/28 06:07:27;;;;;;;7.45;6.65;;;;;;;26.94;41.37;94703.59;6112719;28;108630;-70
2023/08/28 06:10:30;;;;;;;8.10;7.40;;;;;;;27.00;40.92;94704.13;6112852;28;108598;-70
2023/08/28 06:13:33;;;;;;;8.15;7.10;;;;;;;27.07;41.08;94701.63;6101406;28;108862;-69
2023/08/28 06:16:37;;;;;;;7.13;6.53;;;;;;;27.12;41.03;94706.72;6112855;28;108942;-70
2023/08/28 06:19:41;;;;;;;7.85;7.05;;;;;;;27.18;40.46;94710.72;6112340;28;108681;-71
2023/08/28 06:22:44;;;;;;;8.18;7.38;;;;;;;27.22;40.79;94711.59;6103983;28;108807;-68
2023/08/28 06:25:47;;;;;;;7.60;6.90;;;;;;;27.29;40.43;94722.53;6111473;28;109092;-72
2023/08/28 06:28:50;;;;;;;8.00;7.33;;;;;;;27.38;40.27;94714.28;6113131;28;108929;-71
2023/08/28 06:31:55;;;;;;;8.70;7.40;;;;;;;27.43;40.57;94720.19;6112114;28;109283;-71
2023/08/28 06:34:58;;;;;;;8.50;7.60;;;;;;;27.50;40.55;94716.09;6101603;28;108768;-71
2023/08/28 06:38:01;;;;;;;8.20;7.40;;;;;;;27.53;40.17;94715.41;6112629;28;108811;-70
2023/08/28 06:41:04;;;;;;;8.07;7.47;;;;;;;27.57;40.54;94717.06;6112392;28;109192;-71
2023/08/28 06:44:07;;;;;;;8.10;7.40;;;;;;;27.64;40.62;94713.75;6111863;28;109045;-71
2023/08/28 06:47:13;;;;;;;8.55;7.75;;;;;;;27.71;40.02;94708.53;6102896;28;111757;-71
2023/08/28 06:50:16;;;;;;;8.30;7.50;;;;;;;27.76;40.39;94714.44;6113036;28;108586;-71
2023/08/28 06:53:19;;;;;;;7.95;7.15;;;;;;;27.81;40.40;94715.28;6112428;28;108590;-70
2023/08/28 06:56:22;;;;;;;8.00;7.20;;;;;;;27.85;39.78;94713.44;6107574;28;108857;-69
2023/08/28 06:59:25;;;;;;;7.93;7.23;;;;;;;27.88;40.08;94710.09;6106754;28;108854;-71
2023/08/28 07:02:31;;;;;;;7.60;6.90;;;;;;;27.91;39.95;94706.72;6112809;28;108606;-71
2023/08/28 07:05:34;;;;;;;7.63;6.83;;;;;;;27.93;40.25;94701.75;6112703;28;109086;-71
2023/08/28 07:08:38;;;;;;;7.60;6.90;;;;;;;27.92;39.69;94714.44;6102086;28;109220;-71
2023/08/28 07:11:41;;;;;;;7.80;6.77;;;;;;;27.94;39.74;94708.69;6112479;28;108959;-72
2023/08/28 07:14:44;;;;;;;7.90;7.10;;;;;;;28.02;39.54;94711.16;6112002;28;108970;-73
2023/08/28 07:17:49;;;;;;;9.80;7.07;;;;;;;28.04;39.62;94700.84;6112532;28;108609;-71
2023/08/28 07:20:52;;;;;;;8.55;6.90;;;;;;;28.02;39.80;94702.31;6100980;28;109992;-71
2023/08/28 07:23:55;;;;;;;8.30;6.53;;;;;;;28.09;39.42;94705.19;6111975;28;108637;-72
2023/08/28 07:26:59;;;;;;;10.02;7.25;;;;;;;28.10;40.16;94704.03;6112315;28;108777;-72
2023/08/28 07:30:04;;;;;;;7.85;6.93;;;;;;;28.15;40.07;94714.53;6112255;28;109093;-71
2023/08/28 07:33:08;;;;;;;8.10;6.63;;;;;;;28.16;39.45;94709.91;6102512;28;109001;-71
2023/08/28 07:36:12;;;;;;;7.05;6.35;;;;;;;28.19;39.76;94710.00;6112033;28;108857;-61
2023/08/28 07:39:15;;;;;;;7.28;6.57;;;;;;;28.23;39.56;94710.88;6110460;28;108879;-61
2023/08/28 07:42:18;;;;;;;7.97;6.80;;;;;;;28.25;40.03;94705.91;6101666;28;108616;-64
2023/08/28 07:45:21;;;;;;;6.70;6.10;;;;;;;28.29;39.58;94708.66;6112454;28;109228;-61
2023/08/28 07:48:25;;;;;;;8.47;6.93;;;;;;;28.32;40.02;94705.25;6114505;28;109228;-60
2023/08/28 07:51:29;;;;;;;7.38;6.50;;;;;;;28.32;39.61;94708.72;6114455;28;108612;-61
2023/08/28 07:54:32;;;;;;;7.00;6.30;;;;;;;28.29;39.96;94706.75;6103725;28;109197;-62
2023/08/28 07:57:35;;;;;;;7.33;6.60;;;;;;;28.34;39.94;94711.06;6113861;28;108814;-61
2023/08/28 08:00:40;;;;;;;7.43;6.50;;;;;;;28.44;39.95;94713.19;6114097;28;108856;-60
2023/08/28 08:03:44;;;;;;;7.37;6.43;;;;;;;28.44;40.00;94715.88;6113696;28;108810;-61
2023/08/28 08:06:48;;;;;;;7.15;6.45;;;;;;;28.43;40.00;94714.34;6104367;28;108745;-61
2023/08/28 08:09:51;;;;;;;7.10;6.40;;;;;;;28.42;39.65;94712.78;6113894;28;108602;-61
2023/08/28 08:12:54;;;;;;;7.80;6.68;;;;;;;28.46;39.61;94708.25;6113941;28;108777;-61
2023/08/28 08:15:57;;;;;;;6.93;6.32;;;;;;;28.48;40.02;94710.59;6107969;28;108752;-61
2023/08/28 08:19:02;;;;;;;7.50;6.80;;;;;;;28.48;40.05;94713.28;6108339;28;108677;-61
2023/08/28 08:22:06;;;;;;;7.20;6.50;;;;;;;28.49;40.13;94714.84;6113309;28;108882;-62
2023/08/28 08:25:10;;;;;;;6.80;6.20;;;;;;;28.55;39.67;94705.34;6114009;28;108855;-62
2023/08/28 08:28:15;;;;;;;7.75;6.75;;;;;;;28.54;39.90;94699.19;6102839;28;108896;-61
2023/08/28 08:31:18;;;;;;;7.45;6.28;;;;;;;28.58;40.18;94705.44;6114393;28;108967;-62
2023/08/28 08:34:23;;;;;;;7.00;6.40;;;;;;;28.65;39.66;94705.56;6113581;28;108889;-61
2023/08/28 08:37:28;;;;;;;8.90;8.00;;;;;;;28.68;39.45;94698.69;6113657;28;109313;-61
2023/08/28 08:40:33;;;;;;;12.40;11.40;;;;;;;28.65;40.07;94694.78;6102610;28;108971;-61
2023/08/28 08:43:36;;;;;;;14.25;13.05;;;;;;;28.64;39.76;94693.22;6113021;28;108879;-61
2023/08/28 08:46:41;;;;;;;13.75;12.65;;;;;;;28.71;39.56;94689.88;6112978;28;108676;-63
2023/08/28 08:49:53;;;;;;;14.00;12.90;;;;;;;28.75;39.76;94681.88;6110541;28;108570;-65
2023/08/28 08:53:03;;;;;;;12.90;11.80;;;;;;;28.75;39.48;94679.97;6107522;28;108768;-64
2023/08/28 08:56:11;;;;;;;12.73;11.63;;;;;;;28.72;40.30;94679.88;6112325;28;108933;-64
2023/08/28 08:59:15;;;;;;;11.93;10.93;;;;;;;28.69;40.19;94672.53;6113164;28;108590;-64
2023/08/28 09:02:19;;;;;;;11.57;10.50;;;;;;;28.73;39.77;94670.66;6102714;28;108956;-64
2023/08/28 09:05:24;;;;;;;11.70;10.70;;;;;;;28.71;40.26;94672.94;6112947;28;109060;-64
2023/08/28 09:08:28;;;;;;;10.77;9.88;;;;;;;28.73;40.00;94667.97;6113205;28;108702;-63
2023/08/28 09:11:31;;;;;;;12.30;11.20;;;;;;;28.74;39.94;94658.78;6113010;28;108809;-63
2023/08/28 09:14:35;;;;;;;11.80;10.80;;;;;;;28.72;40.28;94652.94;6102473;28;110696;-63
2023/08/28 09:17:42;;;;;;;11.30;10.40;;;;;;;28.75;40.31;94653.03;6112289;28;109056;-64
2023/08/28 09:21:07;;;;;;;11.05;10.15;;;;;;;28.72;40.23;94645.66;6112223;28;108589;-63
2023/08/28 09:24:10;;;;;;;10.25;9.35;;;;;;;28.74;40.41;94650.69;6107377;28;109033;-63
2023/08/28 09:27:14;;;;;;;10.25;9.25;;;;;;;28.73;40.30;94641.03;6107117;28;108748;-62
2023/08/28 09:30:28;;;;;;;9.90;9.00;;;;;;;28.80;40.32;94649.25;6112850;28;108973;-63
2023/08/28 09:33:44;;;;;;;10.00;9.00;;;;;;;28.86;40.18;94631.66;6112419;28;108857;-63
2023/08/28 09:37:12;;;;;;;8.20;7.50;;;;;;;29.31;37.68;94624.69;6102850;28;109664;-63
2023/08/28 09:40:25;;;;;;;8.60;7.80;;;;;;;29.10;38.85;94615.16;6112552;28;108933;-63
2023/08/28 09:43:29;;;;;;;8.40;7.70;;;;;;;28.97;39.32;94618.38;6112065;28;108594;-62
2023/08/28 09:46:32;;;;;;;8.43;7.70;;;;;;;28.91;39.66;94612.50;6111316;28;108998;-63
2023/08/28 09:49:44;;;;;;;8.52;7.72;;;;;;;28.87;39.11;94603.56;6103904;28;108966;-63
2023/08/28 09:52:48;;;;;;;8.20;7.40;;;;;;;28.84;39.26;94596.22;6112074;28;108650;-63
2023/08/28 09:55:53;;;;;;;8.60;7.35;;;;;;;28.96;39.50;94590.66;6111751;28;108711;-63
2023/08/28 09:58:58;;;;;;;7.57;6.82;;;;;;;29.05;38.61;94585.03;6102563;28;108827;-70
2023/08/28 10:02:02;;;;;;;7.35;6.65;;;;;;;29.03;38.74;94589.97;6112469;28;108641;-70
2023/08/28 10:05:20;;;;;;;7.32;6.68;;;;;;;29.09;38.50;94589.34;6112980;28;108695;-70
2023/08/28 10:08:31;;;;;;;7.20;6.60;;;;;;;29.11;38.72;94586.28;6112799;28;108845;-69
2023/08/28 10:11:39;;;;;;;6.85;6.15;;;;;;;29.22;37.37;94582.59;6102413;28;108822;-70
2023/08/28 10:14:42;;;;;;;6.87;6.17;;;;;;;29.19;36.56;94579.84;6112597;28;108857;-69
2023/08/28 10:17:47;;;;;;;8.63;5.90;;;;;;;29.05;37.30;94566.94;6112756;28;108901;-70
2023/08/28 10:20:50;;;;;;;6.60;6.10;;;;;;;28.95;38.31;94562.16;6106631;28;108689;-69
2023/08/28 10:23:56;;;;;;;6.60;6.00;;;;;;;28.88;38.44;94562.03;6107174;28;109492;-69
2023/08/28 10:27:01;;;;;;;6.50;5.90;;;;;;;28.88;37.75;94556.63;6112729;28;108603;-69
2023/08/28 10:30:06;;;;;;;7.40;6.03;;;;;;;29.04;37.70;94557.31;6113002;28;108746;-69
2023/08/28 10:33:12;;;;;;;6.45;5.85;;;;;;;29.04;37.75;94549.22;6101920;28;108573;-69
2023/08/28 10:36:18;;;;;;;6.60;5.90;;;;;;;29.06;37.47;94546.94;6112359;28;109053;-70
2023/08/28 10:39:43;;;;;;;5.90;5.40;;;;;;;29.03;37.24;94539.56;6112588;28;108556;-70
2023/08/28 10:42:47;;;;;;;6.00;5.40;;;;;;;29.02;37.97;94537.22;6112247;28;108580;-70
2023/08/28 10:45:54;;;;;;;6.18;4.90;;;;;;;28.99;37.80;94533.34;6101528;28;109171;-69
2023/08/28 10:48:59;;;;;;;5.50;5.00;;;;;;;29.04;37.24;94522.28;6111650;28;109242;-69
2023/08/28 10:52:03;;;;;;;5.95;5.10;;;;;;;29.03;37.05;94522.63;6111642;28;108779;-69
2023/08/28 10:55:09;;;;;;;5.97;4.90;;;;;;;28.93;37.43;94518.63;6106766;28;108611;-69
2023/08/28 10:58:13;;;;;;;6.17;5.30;;;;;;;28.82;37.87;94518.47;6106438;28;109257;-70
2023/08/28 11:01:17;;;;;;;5.10;4.70;;;;;;;28.75;37.91;94514.91;6112322;28;108737;-69
2023/08/28 11:04:22;;;;;;;7.18;4.78;;;;;;;28.72;38.49;94507.53;6112141;28;108603;-69
2023/08/28 11:07:45;;;;;;;5.47;4.88;;;;;;;28.76;38.57;94505.69;6100941;28;108648;-68
2023/08/28 11:11:12;;;;;;;5.15;4.65;;;;;;;28.85;38.32;94501.56;6111749;28;108640;-68
2023/08/28 11:14:16;;;;;;;5.85;5.25;;;;;;;28.80;38.21;94496.50;6110059;28;108796;-63
2023/08/28 11:17:20;;;;;;;6.60;4.80;;;;;;;28.73;38.49;94490.22;6110118;28;108706;-63
2023/08/28 11:20:27;;;;;;;6.43;5.00;;;;;;;28.71;37.36;94493.28;6102794;28;108688;-63
2023/08/28 11:23:36;;;;;;;4.93;4.40;;;;;;;28.73;37.14;94482.16;6113768;28;108881;-63
2023/08/28 11:26:45;;;;;;;5.00;4.22;;;;;;;29.12;35.20;94480.84;6114306;28;109062;-64
2023/08/28 11:29:48;;;;;;;5.10;4.60;;;;;;;29.15;35.28;94463.16;6105354;28;109943;-64
2023/08/28 11:32:52;;;;;;;5.45;4.60;;;;;;;28.96;35.99;94458.63;6114031;28;108915;-63
2023/08/28 11:36:01;;;;;;;7.57;4.38;;;;;;;28.99;34.77;94457.13;6114472;28;108785;-64
2023/08/28 11:39:04;;;;;;;4.93;4.30;;;;;;;29.10;34.14;94447.31;6114017;28;108851;-65
2023/08/28 11:42:13;;;;;;;6.07;3.60;;;;;;;29.28;33.58;94450.22;6103128;28;111204;-67
2023/08/28 11:45:20;;;;;;;6.20;3.80;;;;;;;29.19;34.62;94434.31;6114544;28;108810;-67
2023/08/28 11:48:27;;;;;;;5.20;3.70;;;;;;;29.11;34.90;94436.16;6113835;28;108762;-67
2023/08/28 11:51:30;;;;;;;4.10;3.67;;;;;;;29.06;34.16;94439.16;6113967;28;108879;-67
2023/08/28 11:54:34;;;;;;;5.05;4.07;;;;;;;29.02;34.42;94437.53;6100139;28;108901;-64
2023/08/28 11:57:39;;;;;;;4.63;3.80;;;;;;;28.90;34.48;94428.56;6109836;28;108764;-65
2023/08/28 12:00:43;;;;;;;4.75;3.35;;;;;;;28.48;37.09;94426.03;6098695;28;109158;-63
2023/08/28 12:03:46;;;;;;;5.10;3.40;;;;;;;27.82;38.40;94418.34;6106113;28;108847;-66
2023/08/28 12:06:49;;;;;;;4.40;3.80;;;;;;;26.31;39.24;94410.22;6110180;28;109233;-63
2023/08/28 12:09:54;;;;;;;7.03;4.37;;;;;;;25.81;39.84;94401.72;6112326;28;108865;-63
2023/08/28 12:12:59;;;;;;;17.13;9.90;;;;;;;25.54;39.55;94398.00;6113734;28;108817;-63
2023/08/28 12:16:15;;;;;;;23.02;14.90;;;;;;;25.06;40.06;94393.59;6102715;28;109509;-63
2023/08/28 12:19:20;;;;;;;;;;;;;;;24.89;39.63;94386.63;6115221;28;108680;-75
2023/08/28 12:22:25;;;;;;;;;;;;;;;24.78;39.45;94385.53;6114700;28;108586;-75
2023/08/28 12:25:31;;;;;;;;;;;;;;;24.51;39.05;94384.31;6109204;28;108727;-75
2023/08/28 12:28:35;;;;;;;;;;;;;;;24.32;39.28;94368.88;6105621;28;109364;-76
2023/08/28 12:31:40;;;;;;;;;;;;;;;24.40;38.69;94357.28;6114350;28;109065;-75
2023/08/28 12:34:43;;;;;;;;;;;;;;;24.19;38.87;94364.63;6115099;28;108624;-76
2023/08/28 12:37:48;;;;;;;;;;;;;;;24.29;38.99;94353.50;6108197;28;108790;-71
2023/08/28 12:40:52;;;;;;;;;;;;;;;24.13;38.86;94350.72;6114393;28;108890;-76
2023/08/28 12:43:56;;;;;;;;;;;;;;;24.19;38.07;94357.44;6115449;28;108668;-75
2023/08/28 12:46:59;;;;;;;;;;;;;;;24.19;37.85;94353.94;6108466;28;108771;-74
2023/08/28 12:50:02;;;;;;;;;;;;;;;24.08;38.20;94342.94;6104101;28;108888;-75
2023/08/28 12:53:05;;;;;;;;;;;;;;;24.01;38.12;94342.72;6114909;28;108699;-74
2023/08/28 12:56:08;;;;;;;;;;;;;;;23.88;37.77;94347.25;6113854;28;108996;-75
2023/08/28 12:59:13;;;;;;;;;;;;;;;23.88;38.34;94349.94;6105100;28;108815;-74
2023/08/28 13:02:16;;;;;;;;;;;;;;;23.81;37.61;94336.34;6082469;28;109901;-75
2023/08/28 13:05:20;;;;;;;;;;;;;;;23.63;37.78;94342.22;6094484;28;108565;-74
2023/08/28 13:08:23;;;;;;;;;;;;;;;23.74;37.92;94346.81;6105337;28;108918;-75
2023/08/28 13:11:26;;;;;;;;;;;;;;;23.76;37.35;94347.25;6088599;28;109409;-73
2023/08/28 13:14:30;;;;;;;;;;;;;;;23.67;37.52;94348.44;6106065;28;109099;-73
2023/08/28 13:17:33;;;;;;;;;;;;;;;23.64;37.23;94341.88;6108642;28;108776;-74
2023/08/28 13:20:37;;;;;;;;;;;;;;;23.52;38.00;94331.19;6090364;28;109009;-75
2023/08/28 13:23:39;;;;;;;;;;;;;;;23.33;38.39;94339.72;6091858;28;109056;-74
2023/08/28 13:26:42;;;;;;;;;;;;;;;23.47;38.16;94323.41;6107768;28;109418;-75
2023/08/28 13:29:46;;;;;;;;;;;;;;;23.36;37.97;94317.72;6114348;28;108682;-61
2023/08/28 13:32:50;;;;;;;;;;;;;;;23.52;37.80;94320.50;6114097;28;108621;-60
2023/08/28 13:35:53;;;;;;;;;;;;;;;23.45;38.23;94314.94;6101629;28;109091;-61
2023/08/28 13:38:56;;;;;;;;;;;;;;;23.34;38.31;94327.16;6113210;28;108681;-60
2023/08/28 13:41:59;;;;;;;;;;;;;;;23.30;38.07;94335.03;6107446;28;110533;-63
2023/08/28 13:45:04;;;;;;;;;;;;;;;23.20;38.20;94324.78;6112963;28;108852;-60
2023/08/28 13:48:07;;;;;;;;;;;;;;;23.33;37.88;94317.59;6081036;28;109019;-62
2023/08/28 13:51:10;;;;;;;;;;;;;;;23.23;38.45;94324.88;6090273;28;108754;-61
2023/08/28 13:54:13;;;;;;;;;;;;;;;23.26;38.20;94316.22;6111773;28;108687;-61
2023/08/28 13:57:15;;;;;;;;;;;;;;;23.18;38.62;94308.28;6106326;28;109104;-64
2023/08/28 14:00:21;;;;;;;;;;;;;;;23.10;38.33;94311.84;6089461;28;108790;-61
2023/08/28 14:03:25;;;;;;;;;;;;;;;23.18;38.81;94308.28;6101922;28;108735;-62
2023/08/28 14:06:28;;;;;;;;;;;;;;;23.30;38.76;94319.81;6112943;28;108790;-60
2023/08/28 14:09:31;;;;;;;;;;;;;;;23.14;38.74;94316.19;6102875;28;108779;-61
2023/08/28 14:12:34;;;;;;;;;;;;;;;23.11;39.04;94316.84;6112655;28;108931;-61
2023/08/28 14:15:38;;;;;;;;;;;;;;;23.15;38.49;94322.28;6107689;28;108801;-62
2023/08/28 14:18:41;;;;;;;;;;;;;;;23.09;38.54;94313.72;6109928;28;108633;-61
2023/08/28 14:21:44;;;;;;;;;;;;;;;23.00;38.88;94315.69;6100121;28;108805;-62
2023/08/28 14:24:46;;;;;;;;;;;;;;;23.10;38.81;94320.63;6107240;28;109001;-63
2023/08/28 14:27:51;;;;;;;;;;;;;;;23.06;38.52;94310.94;6100855;28;108732;-60
2023/08/28 14:31:07;;;;;;;;;;;;;;;23.06;38.39;94316.28;6109010;28;109287;-61